createdAt,value
2023-03-31T00:00:58.329Z,99102.22
2023-03-31T00:03:25.618Z,99093.44
2023-03-31T00:06:00.856Z,99096.34
2023-03-31T00:08:35.848Z,99097.06
2023-03-31T00:11:07.476Z,99086.66
2023-03-31T00:13:36.271Z,99084.22
2023-03-31T00:16:09.569Z,99076.34
2023-03-31T00:18:37.219Z,99076.50
2023-03-31T00:21:09.005Z,99073.78
2023-03-31T00:23:36.470Z,99067.06
2023-03-31T00:26:03.922Z,99066.34
2023-03-31T00:28:31.354Z,99067.19
2023-03-31T00:31:03.322Z,99068.09
2023-03-31T00:33:30.509Z,99064.72
2023-03-31T00:36:02.556Z,99056.56
2023-03-31T00:38:33.038Z,99054.63
2023-03-31T00:41:01.479Z,99054.47
2023-03-31T00:43:37.097Z,99043.84
2023-03-31T00:46:15.755Z,99048.22
2023-03-31T00:48:58.339Z,99038.44
2023-03-31T00:51:32.322Z,99039.19
2023-03-31T00:54:06.518Z,99032.03
2023-03-31T00:56:37.972Z,99029.34
2023-03-31T00:59:09.141Z,99020.59
2023-03-31T01:01:39.751Z,99019.16
2023-03-31T01:04:10.180Z,99018.84
2023-03-31T01:06:50.457Z,99010.28
2023-03-31T01:09:17.668Z,99013.47
2023-03-31T01:11:46.980Z,99002.97
2023-03-31T01:14:14.851Z,99001.25
2023-03-31T01:16:44.664Z,98999.41
2023-03-31T01:19:24.010Z,99002.94
2023-03-31T01:22:03.068Z,98996.78
2023-03-31T01:24:52.181Z,98992.59
2023-03-31T01:27:42.704Z,98995.97
2023-03-31T01:30:34.610Z,98993.44
2023-03-31T01:33:47.150Z,98983.72
2023-03-31T01:36:51.849Z,98981.09
2023-03-31T01:39:44.190Z,98978.56
2023-03-31T01:42:23.661Z,98965.47
2023-03-31T01:45:18.586Z,98969.81
2023-03-31T01:47:59.233Z,98966.34
2023-03-31T01:50:53.981Z,98956.94
2023-03-31T01:53:23.874Z,98958.59
2023-03-31T01:56:02.867Z,98954.31
2023-03-31T01:58:39.914Z,98948.19
2023-03-31T02:01:21.518Z,98949.09
2023-03-31T02:04:15.031Z,98949.78
2023-03-31T02:06:50.237Z,98947.34
2023-03-31T02:09:22.259Z,98933.28
2023-03-31T02:11:52.213Z,98923.50
2023-03-31T02:14:24.283Z,98922.53
2023-03-31T02:16:58.721Z,98918.94
2023-03-31T02:19:31.916Z,98922.38
2023-03-31T02:22:00.027Z,98922.25
2023-03-31T02:24:29.630Z,98918.75
2023-03-31T02:27:28.659Z,98922.22
2023-03-31T02:29:56.523Z,98924.72
2023-03-31T02:32:36.362Z,98922.16
2023-03-31T02:35:04.988Z,98919.38
2023-03-31T02:37:33.588Z,98922.09
2023-03-31T02:40:06.634Z,98916.88
2023-03-31T02:42:34.081Z,98918.69
2023-03-31T02:45:03.962Z,98908.41
2023-03-31T02:47:31.751Z,98914.94
2023-03-31T02:50:02.057Z,98921.94
2023-03-31T02:52:41.100Z,98919.94
2023-03-31T02:55:18.276Z,98919.06
2023-03-31T02:57:57.489Z,98915.47
2023-03-31T03:01:03.643Z,98913.44
2023-03-31T03:04:00.993Z,98915.97
2023-03-31T03:06:37.908Z,98924.56
2023-03-31T03:09:45.000Z,98919.28
2023-03-31T03:12:24.124Z,98914.94
2023-03-31T03:15:13.175Z,98902.56
2023-03-31T03:17:47.781Z,98897.25
2023-03-31T03:20:16.554Z,98904.22
2023-03-31T03:22:43.769Z,98906.06
2023-03-31T03:25:13.744Z,98898.03
2023-03-31T03:27:41.496Z,98896.25
2023-03-31T03:30:11.526Z,98897.03
2023-03-31T03:32:39.003Z,98894.41
2023-03-31T03:35:07.260Z,98889.22
2023-03-31T03:37:34.869Z,98891.00
2023-03-31T03:40:02.237Z,98885.81
2023-03-31T03:42:29.726Z,98883.19
2023-03-31T03:44:57.208Z,98886.66
2023-03-31T03:47:25.091Z,98887.47
2023-03-31T03:49:52.624Z,98884.91
2023-03-31T03:52:20.852Z,98877.78
2023-03-31T03:54:48.093Z,98890.06
2023-03-31T03:57:16.067Z,98874.31
2023-03-31T03:59:43.323Z,98869.00
2023-03-31T04:02:11.073Z,98868.81
2023-03-31T04:04:38.351Z,98866.13
2023-03-31T04:07:06.554Z,98866.19
2023-03-31T04:09:33.919Z,98859.94
2023-03-31T04:12:02.346Z,98854.63
2023-03-31T04:14:29.932Z,98847.53
2023-03-31T04:16:59.158Z,98851.84
2023-03-31T04:19:27.709Z,98856.09
2023-03-31T04:22:03.772Z,98845.53
2023-03-31T04:24:33.531Z,98845.59
2023-03-31T04:27:03.546Z,98855.94
2023-03-31T04:29:34.151Z,98855.88
2023-03-31T04:32:02.102Z,98853.13
2023-03-31T04:34:38.931Z,98846.13
2023-03-31T04:37:06.606Z,98846.75
2023-03-31T04:39:33.872Z,98833.41
2023-03-31T04:42:01.785Z,98834.13
2023-03-31T04:44:30.058Z,98824.13
2023-03-31T04:46:59.071Z,98824.84
2023-03-31T04:49:26.645Z,98822.09
2023-03-31T04:51:53.853Z,98815.78
2023-03-31T04:54:21.482Z,98816.56
2023-03-31T04:56:49.631Z,98809.41
2023-03-31T04:59:16.948Z,98809.88
2023-03-31T05:01:45.834Z,98809.50
2023-03-31T05:04:13.551Z,98801.47
2023-03-31T05:06:41.406Z,98799.38
2023-03-31T05:09:10.110Z,98793.75
2023-03-31T05:11:38.597Z,98787.19
2023-03-31T05:14:06.446Z,98786.84
2023-03-31T05:16:35.038Z,98784.75
2023-03-31T05:19:02.350Z,98776.06
2023-03-31T05:21:31.229Z,98772.75
2023-03-31T05:23:58.851Z,98763.34
2023-03-31T05:26:26.626Z,98766.53
2023-03-31T05:28:55.020Z,98768.22
2023-03-31T05:31:23.312Z,98761.75
2023-03-31T05:33:51.023Z,98768.25
2023-03-31T05:36:18.341Z,98760.81
2023-03-31T05:38:46.377Z,98767.06
2023-03-31T05:41:13.993Z,98764.53
2023-03-31T05:43:41.393Z,98756.97
2023-03-31T05:46:08.932Z,98751.41
2023-03-31T05:48:37.693Z,98744.38
2023-03-31T05:51:05.461Z,98741.31
2023-03-31T05:53:34.203Z,98737.78
2023-03-31T05:56:03.964Z,98738.47
2023-03-31T05:58:34.011Z,98736.41
2023-03-31T06:01:10.729Z,98732.28
2023-03-31T06:03:44.615Z,98730.31
2023-03-31T06:06:16.972Z,98726.78
2023-03-31T06:08:45.984Z,98723.44
2023-03-31T06:11:19.799Z,98718.75
2023-03-31T06:13:47.795Z,98711.91
2023-03-31T06:16:17.274Z,98712.09
2023-03-31T06:18:46.692Z,98704.88
2023-03-31T06:21:17.904Z,98711.06
2023-03-31T06:23:46.416Z,98707.34
2023-03-31T06:26:16.772Z,98706.16
2023-03-31T06:28:45.962Z,98707.47
2023-03-31T06:31:15.834Z,98698.31
2023-03-31T06:33:45.042Z,98696.88
2023-03-31T06:36:15.455Z,98698.41
2023-03-31T06:38:43.906Z,98702.50
2023-03-31T06:41:14.867Z,98709.84
2023-03-31T06:43:43.299Z,98708.88
2023-03-31T06:46:12.050Z,98703.56
2023-03-31T06:48:40.590Z,98696.31
2023-03-31T06:51:09.199Z,98709.25
2023-03-31T06:53:37.726Z,98701.59
2023-03-31T06:56:07.266Z,98703.66
2023-03-31T06:58:35.734Z,98698.47
2023-03-31T07:01:05.785Z,98696.69
2023-03-31T07:03:34.874Z,98697.69
2023-03-31T07:06:06.148Z,98697.56
2023-03-31T07:08:34.466Z,98698.41
2023-03-31T07:11:02.664Z,98696.91
2023-03-31T07:13:31.449Z,98698.44
2023-03-31T07:15:59.585Z,98696.13
2023-03-31T07:18:34.786Z,98688.44
2023-03-31T07:21:10.078Z,98692.09
2023-03-31T07:23:38.705Z,98691.41
2023-03-31T07:26:07.296Z,98690.66
2023-03-31T07:28:35.937Z,98688.47
2023-03-31T07:31:04.185Z,98684.97
2023-03-31T07:33:33.783Z,98677.75
2023-03-31T07:36:12.756Z,98671.84
2023-03-31T07:38:47.126Z,98665.56
2023-03-31T07:41:18.530Z,98666.47
2023-03-31T07:43:50.223Z,98663.75
2023-03-31T07:46:27.146Z,98661.41
2023-03-31T07:48:58.097Z,98666.38
2023-03-31T07:51:29.938Z,98654.41
2023-03-31T07:53:58.313Z,98657.78
2023-03-31T07:56:26.534Z,98660.25
2023-03-31T07:58:57.732Z,98656.19
2023-03-31T08:01:27.058Z,98649.38
2023-03-31T08:03:56.305Z,98664.47
2023-03-31T08:06:26.558Z,98658.47
2023-03-31T08:08:54.832Z,98658.72
2023-03-31T08:11:22.858Z,98660.09
2023-03-31T08:13:52.110Z,98659.16
2023-03-31T08:16:20.650Z,98660.13
2023-03-31T08:18:49.436Z,98646.91
2023-03-31T08:21:17.537Z,98648.19
2023-03-31T08:23:45.972Z,98645.47
2023-03-31T08:26:20.613Z,98645.28
2023-03-31T08:28:49.718Z,98651.06
2023-03-31T08:31:23.247Z,98643.91
2023-03-31T08:33:52.947Z,98643.78
2023-03-31T08:36:20.720Z,98640.38
2023-03-31T08:38:50.114Z,98644.34
2023-03-31T08:41:38.429Z,98639.19
2023-03-31T08:44:31.783Z,98633.41
2023-03-31T08:47:03.077Z,98628.75
2023-03-31T08:49:42.377Z,98627.69
2023-03-31T08:52:17.176Z,98624.31
2023-03-31T08:54:52.150Z,98615.97
2023-03-31T08:57:26.997Z,98616.78
2023-03-31T08:59:58.576Z,98611.72
2023-03-31T09:02:34.059Z,98610.97
2023-03-31T09:05:43.212Z,98609.50
2023-03-31T09:08:36.026Z,98601.31
2023-03-31T09:11:14.632Z,98607.41
2023-03-31T09:13:45.476Z,98598.28
2023-03-31T09:16:20.714Z,98602.81
2023-03-31T09:18:48.371Z,98593.06
2023-03-31T09:21:49.668Z,98596.06
2023-03-31T09:24:23.889Z,98582.88
2023-03-31T09:27:00.218Z,98590.63
2023-03-31T09:29:51.776Z,98589.06
2023-03-31T09:32:24.338Z,98584.97
2023-03-31T09:35:02.143Z,98583.69
2023-03-31T09:37:33.850Z,98582.25
2023-03-31T09:40:08.343Z,98580.06
2023-03-31T09:42:37.834Z,98576.41
2023-03-31T09:45:07.372Z,98582.47
2023-03-31T09:47:57.975Z,98575.59
2023-03-31T09:50:28.129Z,98578.63
2023-03-31T09:53:01.264Z,98564.06
2023-03-31T09:55:46.409Z,98567.56
2023-03-31T09:58:17.408Z,98565.66
2023-03-31T10:01:15.754Z,98563.38
2023-03-31T10:03:54.360Z,98558.53
2023-03-31T10:06:25.623Z,98568.00
2023-03-31T10:09:00.311Z,98557.25
2023-03-31T10:11:27.642Z,98561.44
2023-03-31T10:14:03.959Z,98549.28
2023-03-31T10:16:51.663Z,98546.22
2023-03-31T10:19:27.856Z,98540.41
2023-03-31T10:22:06.936Z,98543.78
2023-03-31T10:24:41.505Z,98541.47
2023-03-31T10:27:30.671Z,98539.28
2023-03-31T10:30:01.646Z,98540.91
2023-03-31T10:32:32.120Z,98544.31
2023-03-31T10:35:06.562Z,98529.25
2023-03-31T10:37:37.461Z,98527.53
2023-03-31T10:40:24.425Z,98523.25
2023-03-31T10:43:25.593Z,98511.78
2023-03-31T10:45:57.253Z,98505.16
2023-03-31T10:48:32.652Z,98499.72
2023-03-31T10:51:02.422Z,98501.03
2023-03-31T10:53:30.684Z,98498.78
2023-03-31T10:56:05.530Z,98496.16
2023-03-31T10:59:04.530Z,98497.16
2023-03-31T11:01:48.319Z,98490.19
2023-03-31T11:04:22.377Z,98484.84
2023-03-31T11:06:58.192Z,98481.06
2023-03-31T11:09:36.014Z,98487.44
2023-03-31T11:12:34.060Z,98477.66
2023-03-31T11:15:27.584Z,98477.91
2023-03-31T11:18:16.422Z,98474.75
2023-03-31T11:21:08.986Z,98471.81
2023-03-31T11:23:44.924Z,98463.22
2023-03-31T11:26:23.116Z,98463.31
2023-03-31T11:29:26.572Z,98455.56
2023-03-31T11:32:21.132Z,98448.59
2023-03-31T11:35:16.815Z,98452.13
2023-03-31T11:38:02.098Z,98450.38
2023-03-31T11:41:15.781Z,98455.38
2023-03-31T11:44:03.531Z,98456.22
2023-03-31T11:46:55.548Z,98457.28
2023-03-31T11:49:31.417Z,98449.03
2023-03-31T11:52:33.566Z,98447.00
2023-03-31T11:55:16.338Z,98449.25
2023-03-31T11:57:47.264Z,98430.59
2023-03-31T12:00:23.824Z,98431.00
2023-03-31T12:03:39.569Z,98419.44
2023-03-31T12:06:17.813Z,98425.25
2023-03-31T12:08:51.740Z,98425.88
2023-03-31T12:11:47.645Z,98409.31
2023-03-31T12:14:31.559Z,98416.63
2023-03-31T12:17:11.931Z,98420.88
2023-03-31T12:19:52.057Z,98412.75
2023-03-31T12:22:19.847Z,98412.75
2023-03-31T12:24:47.980Z,98411.41
2023-03-31T12:27:26.299Z,98401.84
2023-03-31T12:30:11.365Z,98399.63
2023-03-31T12:32:48.213Z,98404.06
2023-03-31T12:35:19.206Z,98402.97
2023-03-31T12:38:23.673Z,98397.13
2023-03-31T12:41:17.245Z,98392.34
2023-03-31T12:43:58.073Z,98394.28
2023-03-31T12:46:54.096Z,98391.38
2023-03-31T12:49:37.499Z,98380.69
2023-03-31T12:52:11.113Z,98384.22
2023-03-31T12:54:41.616Z,98389.97
2023-03-31T12:57:10.664Z,98388.00
2023-03-31T12:59:46.711Z,98386.72
2023-03-31T13:02:18.064Z,98381.91
2023-03-31T13:04:46.621Z,98383.09
2023-03-31T13:07:27.308Z,98395.28
2023-03-31T13:10:22.097Z,98386.75
2023-03-31T13:13:02.514Z,98378.22
2023-03-31T13:15:31.372Z,98385.63
2023-03-31T13:18:07.601Z,98379.66
2023-03-31T13:20:43.289Z,98377.34
2023-03-31T13:23:23.413Z,98382.91
2023-03-31T13:25:59.450Z,98376.03
2023-03-31T13:28:29.051Z,98384.19
2023-03-31T13:31:03.371Z,98368.88
2023-03-31T13:34:03.840Z,98368.72
2023-03-31T13:36:35.208Z,98362.69
2023-03-31T13:39:34.343Z,98368.03
2023-03-31T13:42:23.795Z,98358.41
2023-03-31T13:45:25.325Z,98361.56
2023-03-31T13:48:11.698Z,98360.31
2023-03-31T13:51:17.351Z,98359.63
2023-03-31T13:54:03.563Z,98349.56
2023-03-31T13:56:55.263Z,98342.91
2023-03-31T13:59:56.545Z,98342.59
2023-03-31T14:02:31.443Z,98340.22
2023-03-31T14:05:19.937Z,98340.81
2023-03-31T14:07:55.470Z,98332.81
2023-03-31T14:10:44.925Z,98329.69
2023-03-31T14:13:19.973Z,98325.19
2023-03-31T14:15:59.703Z,98334.13
2023-03-31T14:18:31.690Z,98333.28
2023-03-31T14:21:36.262Z,98329.78
2023-03-31T14:24:37.622Z,98340.47
2023-03-31T14:27:05.155Z,98342.75
2023-03-31T14:29:48.053Z,98338.53
2023-03-31T14:32:39.019Z,98335.38
2023-03-31T14:35:14.888Z,98338.69
2023-03-31T14:37:45.326Z,98341.16
2023-03-31T14:40:18.460Z,98337.75
2023-03-31T14:42:51.015Z,98334.28
2023-03-31T14:45:26.583Z,98329.84
2023-03-31T14:48:15.323Z,98324.41
2023-03-31T14:50:45.473Z,98323.91
2023-03-31T14:53:18.283Z,98324.81
2023-03-31T14:55:58.587Z,98323.47
2023-03-31T14:58:35.515Z,98322.81
2023-03-31T15:01:07.365Z,98324.75
2023-03-31T15:03:42.478Z,98328.16
2023-03-31T15:06:12.140Z,98328.00
2023-03-31T15:08:41.001Z,98326.03
2023-03-31T15:11:19.170Z,98327.13
2023-03-31T15:14:04.332Z,98324.50
2023-03-31T15:16:45.602Z,98322.09
2023-03-31T15:19:25.453Z,98320.25
2023-03-31T15:22:07.495Z,98328.25
2023-03-31T15:24:35.584Z,98327.38
2023-03-31T15:27:20.592Z,98327.53
2023-03-31T15:29:55.577Z,98330.09
2023-03-31T15:32:30.122Z,98330.03
2023-03-31T15:35:11.062Z,98324.84
2023-03-31T15:37:48.109Z,98328.09
2023-03-31T15:40:28.371Z,98335.03
2023-03-31T15:43:06.984Z,98329.84
2023-03-31T15:46:19.593Z,98332.56
2023-03-31T15:48:56.989Z,98326.63
2023-03-31T15:51:24.951Z,98326.63
2023-03-31T15:53:54.824Z,98325.63
2023-03-31T15:56:34.976Z,98326.38
2023-03-31T15:59:05.215Z,98328.50
2023-03-31T16:01:42.494Z,98326.63
2023-03-31T16:04:16.218Z,98321.19
2023-03-31T16:06:47.037Z,98320.94
2023-03-31T16:09:29.418Z,98321.78
2023-03-31T16:12:11.560Z,98314.50
2023-03-31T16:14:48.822Z,98306.31
2023-03-31T16:17:26.742Z,98310.41
2023-03-31T16:20:08.524Z,98316.41
2023-03-31T16:22:42.140Z,98320.34
2023-03-31T16:25:13.002Z,98320.53
2023-03-31T16:27:44.276Z,98323.31
2023-03-31T16:30:16.635Z,98330.31
2023-03-31T16:33:02.309Z,98324.75
2023-03-31T16:35:53.224Z,98329.19
2023-03-31T16:38:22.436Z,98326.72
2023-03-31T16:40:53.566Z,98326.13
2023-03-31T16:43:24.091Z,98321.78
2023-03-31T16:45:52.545Z,98323.56
2023-03-31T16:48:21.933Z,98328.00
2023-03-31T16:50:51.959Z,98329.69
2023-03-31T16:53:22.742Z,98330.63
2023-03-31T16:55:50.429Z,98326.19
2023-03-31T16:58:18.303Z,98326.19
2023-03-31T17:00:46.458Z,98327.84
2023-03-31T17:03:15.053Z,98318.88
2023-03-31T17:05:48.256Z,98320.53
2023-03-31T17:08:16.529Z,98325.38
2023-03-31T17:10:52.780Z,98331.13
2023-03-31T17:13:20.824Z,98322.66
2023-03-31T17:15:49.613Z,98330.38
2023-03-31T17:18:18.151Z,98319.75
2023-03-31T17:20:45.904Z,98333.53
2023-03-31T17:23:14.110Z,98318.47
2023-03-31T17:25:48.189Z,98311.31
2023-03-31T17:28:15.580Z,98321.19
2023-03-31T17:30:44.650Z,98321.03
2023-03-31T17:33:11.765Z,98330.03
2023-03-31T17:35:38.934Z,98325.53
2023-03-31T17:38:06.091Z,98328.16
2023-03-31T17:40:34.772Z,98327.66
2023-03-31T17:43:03.103Z,98322.22
2023-03-31T17:45:31.220Z,98333.28
2023-03-31T17:47:59.867Z,98330.63
2023-03-31T17:50:27.488Z,98328.00
2023-03-31T17:52:55.891Z,98329.94
2023-03-31T17:55:23.793Z,98331.66
2023-03-31T17:57:53.725Z,98335.13
2023-03-31T18:00:21.226Z,98336.75
2023-03-31T18:02:48.584Z,98330.56
2023-03-31T18:05:18.178Z,98332.06
2023-03-31T18:07:45.771Z,98333.19
2023-03-31T18:10:13.252Z,98325.97
2023-03-31T18:12:41.510Z,98327.66
2023-03-31T18:15:10.596Z,98331.66
2023-03-31T18:17:37.968Z,98330.88
2023-03-31T18:20:05.872Z,98340.22
2023-03-31T18:22:33.166Z,98335.44
2023-03-31T18:25:00.707Z,98329.91
2023-03-31T18:27:27.869Z,98333.03
2023-03-31T18:29:55.774Z,98324.59
2023-03-31T18:32:23.053Z,98332.09
2023-03-31T18:34:50.200Z,98326.53
2023-03-31T18:37:17.776Z,98332.44
2023-03-31T18:39:45.183Z,98324.25
2023-03-31T18:42:12.755Z,98335.47
2023-03-31T18:44:40.002Z,98327.28
2023-03-31T18:47:07.397Z,98328.03
2023-03-31T18:49:34.962Z,98317.28
2023-03-31T18:52:04.613Z,98324.94
2023-03-31T18:54:32.438Z,98319.75
2023-03-31T18:57:00.245Z,98321.09
2023-03-31T18:59:27.666Z,98314.03
2023-03-31T19:01:55.104Z,98312.03
2023-03-31T19:04:22.177Z,98313.66
2023-03-31T19:06:49.799Z,98321.41
2023-03-31T19:09:17.667Z,98318.84
2023-03-31T19:11:44.864Z,98317.78
2023-03-31T19:14:12.581Z,98312.91
2023-03-31T19:16:42.756Z,98319.22
2023-03-31T19:19:12.980Z,98316.38
2023-03-31T19:21:41.902Z,98314.03
2023-03-31T19:24:09.734Z,98311.66
2023-03-31T19:26:37.561Z,98309.09
2023-03-31T19:29:05.539Z,98304.28
2023-03-31T19:31:38.550Z,98305.59
2023-03-31T19:34:08.125Z,98307.41
2023-03-31T19:36:35.657Z,98302.88
2023-03-31T19:39:04.063Z,98310.03
2023-03-31T19:41:31.734Z,98304.47
2023-03-31T19:43:59.217Z,98301.16
2023-03-31T19:46:26.724Z,98298.69
2023-03-31T19:48:54.109Z,98289.19
2023-03-31T19:51:21.401Z,98288.09
2023-03-31T19:53:48.746Z,98289.03
2023-03-31T19:56:18.012Z,98284.13
2023-03-31T19:58:45.908Z,98284.31
2023-03-31T20:01:21.414Z,98270.06
2023-03-31T20:03:53.203Z,98277.41
2023-03-31T20:06:26.212Z,98284.31
2023-03-31T20:08:58.872Z,98280.69
2023-03-31T20:11:28.280Z,98287.31
2023-03-31T20:13:56.329Z,98287.78
2023-03-31T20:16:25.881Z,98303.50
2023-03-31T20:18:58.872Z,98298.06
2023-03-31T20:21:29.556Z,98294.50
2023-03-31T20:23:57.491Z,98296.19
2023-03-31T20:26:32.663Z,98295.59
2023-03-31T20:29:04.590Z,98298.63
2023-03-31T20:31:36.859Z,98299.72
2023-03-31T20:34:07.033Z,98303.63
2023-03-31T20:36:34.578Z,98315.38
2023-03-31T20:39:04.412Z,98310.72
2023-03-31T20:41:32.250Z,98316.94
2023-03-31T20:44:00.162Z,98315.06
2023-03-31T20:46:27.839Z,98313.63
2023-03-31T20:48:57.678Z,98313.25
2023-03-31T20:51:28.610Z,98312.84
2023-03-31T20:53:57.708Z,98307.38
2023-03-31T20:56:27.724Z,98314.28
2023-03-31T20:58:57.890Z,98309.56
2023-03-31T21:01:27.833Z,98319.75
2023-03-31T21:03:55.227Z,98322.13
2023-03-31T21:06:22.467Z,98321.59
2023-03-31T21:08:54.091Z,98326.22
2023-03-31T21:11:23.017Z,98324.63
2023-03-31T21:13:51.147Z,98314.94
2023-03-31T21:16:18.318Z,98325.31
2023-03-31T21:18:45.723Z,98316.56
2023-03-31T21:21:15.846Z,98309.41
2023-03-31T21:23:43.130Z,98316.97
2023-03-31T21:26:14.769Z,98306.06
2023-03-31T21:28:42.019Z,98306.53
2023-03-31T21:31:12.346Z,98314.88
2023-03-31T21:33:41.933Z,98319.91
2023-03-31T21:36:12.408Z,98323.72
2023-03-31T21:38:40.920Z,98330.28
2023-03-31T21:41:10.957Z,98317.44
2023-03-31T21:43:38.662Z,98318.13
2023-03-31T21:46:07.016Z,98317.81
2023-03-31T21:48:35.814Z,98313.94
2023-03-31T21:51:03.984Z,98313.78
2023-03-31T21:53:31.670Z,98319.03
2023-03-31T21:55:59.628Z,98305.97
2023-03-31T21:58:29.209Z,98311.22
2023-03-31T22:00:57.767Z,98309.81
2023-03-31T22:03:29.320Z,98304.31
2023-03-31T22:05:58.531Z,98298.81
2023-03-31T22:08:27.440Z,98306.78
2023-03-31T22:10:56.155Z,98303.31
2023-03-31T22:13:25.260Z,98290.06
2023-03-31T22:15:56.572Z,98295.84
2023-03-31T22:18:23.777Z,98285.06
2023-03-31T22:20:51.783Z,98287.88
2023-03-31T22:23:21.043Z,98280.72
2023-03-31T22:25:48.670Z,98285.16
2023-03-31T22:28:17.261Z,98284.19
2023-03-31T22:30:45.119Z,98295.69
2023-03-31T22:33:12.888Z,98288.78
2023-03-31T22:35:40.567Z,98280.06
2023-03-31T22:38:08.746Z,98282.69
2023-03-31T22:40:36.953Z,98283.19
2023-03-31T22:43:05.081Z,98278.00
2023-03-31T22:45:32.733Z,98280.72
2023-03-31T22:48:00.052Z,98281.56
2023-03-31T22:50:27.495Z,98273.94
2023-03-31T22:52:54.966Z,98276.50
2023-03-31T22:55:23.259Z,98281.25
2023-03-31T22:57:51.047Z,98275.22
2023-03-31T23:00:18.826Z,98278.19
2023-03-31T23:02:46.485Z,98273.59
2023-03-31T23:05:13.829Z,98279.72
2023-03-31T23:07:41.925Z,98270.13
2023-03-31T23:10:09.956Z,98273.84
2023-03-31T23:12:37.497Z,98274.78
2023-03-31T23:15:05.195Z,98274.88
2023-03-31T23:17:33.178Z,98273.06
2023-03-31T23:20:00.790Z,98274.53
2023-03-31T23:22:28.147Z,98261.38
2023-03-31T23:24:55.581Z,98262.81
2023-03-31T23:27:23.630Z,98260.25
2023-03-31T23:29:51.353Z,98268.25
2023-03-31T23:32:18.554Z,98263.66
2023-03-31T23:34:45.883Z,98271.56
2023-03-31T23:37:14.423Z,98259.84
2023-03-31T23:39:42.198Z,98265.63
2023-03-31T23:42:10.852Z,98277.25
2023-03-31T23:44:38.006Z,98273.06
2023-03-31T23:47:06.445Z,98271.56
2023-03-31T23:49:33.890Z,98269.34
2023-03-31T23:52:01.494Z,98275.34
2023-03-31T23:54:29.189Z,98273.91
2023-03-31T23:56:56.682Z,98271.97
2023-03-31T23:59:24.398Z,98263.38
